Latest Weather Observations for Walungurru (Kintore)

IDD60801

Issued at 10:11 am CST Tuesday 20 October 2020 (issued every 10 minutes, with the page automatically refreshed every 10 minutes)

About weather observations | Map of weather stations | Latest weather observations for NT | Other Formats
Station Details ID: 015664 Name: WALUNGURRU AIRPORT Lat: -23.27 Lon: 129.38 Height: 454.3 m
Data from the previous 72 hours. | See also: Recent months at Walungurru (Kintore)
Date/Time
CST
Temp
°C
App
Temp
°C
Dew
Point
°C
Rel
Hum
%
Delta-T
°C
Wind Press
QNH
hPa
Press
MSL
hPa
Rain since
9am
mm
Dir  Spd
km/h
Gust
km/h
Spd
kts
Gust
kts
20/10:00am 30.8 28.2 13.1 34 10.8 NNE 19 24 10 13 1012.6 1009.4 0.0
20/09:30am 29.8 27.5 14.7 39 9.4 NNE 20 28 11 15 1012.8 1009.6 0.0
20/09:00am 27.9 24.4 14.5 44 8.2 NE 26 32 14 17 1012.7 1009.5 0.0
20/08:30am 27.0 24.3 15.7 50 7.0 NE 24 32 13 17 1012.6 1009.4 0.0
20/08:00am 25.3 22.8 16.2 57 5.7 NE 24 32 13 17 1012.5 1009.3 0.0
20/07:30am 24.3 21.4 16.0 60 5.1 ENE 26 32 14 17 1012.0 1008.8 0.0
20/07:00am 23.3 20.8 16.1 64 4.5 ENE 24 30 13 16 1011.5 1008.3 0.0
20/06:30am 22.7 20.1 16.0 66 4.1 ENE 24 30 13 16 1011.0 1007.8 0.0
20/06:00am 22.8 20.2 15.9 65 4.2 ENE 24 30 13 16 1010.9 1007.7 0.0
20/05:30am 22.9 20.3 16.0 65 4.3 ENE 24 30 13 16 1010.7 1007.5 0.0
20/05:00am 23.2 20.3 16.0 64 4.4 ENE 26 32 14 17 1010.4 1007.2 0.0
20/04:30am 23.5 20.6 16.1 63 4.6 ENE 26 32 14 17 1010.2 1007.0 0.0
20/04:00am 23.6 20.2 15.9 62 4.8 ENE 28 35 15 19 1010.1 1006.9 0.0
20/03:30am 24.0 21.4 16.0 61 5.0 ENE 24 35 13 19 1009.9 1006.7 0.0
20/03:00am 24.1 23.2 15.9 60 5.1 NE 15 26 8 14 1010.2 1007.0 0.0
20/02:30am 24.4 24.3 15.9 59 5.3 ESE 11 17 6 9 1010.1 1006.9 0.0
20/02:00am 24.7 22.7 15.6 57 5.6 E 20 32 11 17 1010.2 1007.0 0.0
20/01:30am 25.1 20.9 15.7 56 5.8 ENE 32 39 17 21 1009.7 1006.5 0.0
20/01:00am 25.6 21.7 15.6 54 6.2 ENE 30 39 16 21 1010.0 1006.8 0.0
20/12:30am 26.0 22.0 15.1 51 6.7 ENE 30 37 16 20 1010.1 1006.9 0.0
20/12:00am 26.6 22.0 14.7 48 7.3 ENE 32 39 17 21 1010.4 1007.2 0.0
 
Date/Time
CST
Temp
°C
App
Temp
°C
Dew
Point
°C
Rel
Hum
%
Delta-T
°C
Wind Press
QNH
hPa
Press
MSL
hPa
Rain since
9am
mm
Dir  Spd
km/h
Gust
km/h
Spd
kts
Gust
kts
19/11:30pm 26.9 22.8 15.0 48 7.3 ENE 30 39 16 21 1010.7 1007.5 0.0
19/11:00pm 27.6 24.6 14.9 45 7.8 ENE 24 32 13 17 1010.9 1007.7 0.0
19/10:30pm 27.9 25.0 15.2 46 7.9 ENE 24 30 13 16 1011.0 1007.8 0.0
19/10:00pm 28.3 25.8 15.2 44 8.1 ENE 22 28 12 15 1010.9 1007.7 0.0
19/09:30pm 29.0 26.1 14.0 39 9.2 ENE 22 32 12 17 1010.7 1007.5 0.0
19/09:00pm 29.7 26.2 13.5 37 9.9 E 24 30 13 16 1010.4 1007.2 0.0
19/08:30pm 30.4 27.2 11.4 31 11.2 E 19 28 10 15 1010.0 1006.8 0.0
19/08:00pm 32.0 28.7 9.5 25 13.0 ENE 17 24 9 13 1009.2 1006.0 0.0
19/07:30pm 33.0 30.3 9.1 23 13.8 ESE 13 17 7 9 1008.8 1005.6 0.0
19/07:00pm 33.6 30.6 7.6 20 14.7 ENE 13 15 7 8 1008.5 1005.3 0.0
19/06:30pm 34.6 31.0 8.4 20 15.1 NE 17 24 9 13 1008.3 1005.1 0.0
19/06:00pm 35.5 31.3 8.3 19 15.7 E 20 32 11 17 1007.7 1004.5 0.0
19/05:30pm 35.8 32.3 7.0 17 16.3 ESE 15 19 8 10 1007.5 1004.2 0.0
19/05:00pm 35.9 31.6 7.9 18 16.0 E 20 28 11 15 1007.7 1004.5 0.0
19/04:30pm 37.1 35.3 7.1 16 17.1 NE 6 13 3 7 1007.7 1004.5 0.0
19/04:00pm 37.3 34.7 6.3 15 17.5 SSW 9 17 5 9 1007.8 1004.6 0.0
19/03:30pm 37.2 34.5 7.2 16 17.1 SSW 11 15 6 8 1008.1 1004.9 0.0
19/03:00pm 36.0 33.1 8.0 18 16.1 NE 13 24 7 13 1008.6 1005.4 0.0
19/02:30pm 35.9 33.5 8.7 19 15.8 N 11 22 6 12 1009.2 1006.0 0.0
19/02:00pm 35.9 31.6 9.4 20 15.5 ENE 22 32 12 17 1009.7 1006.5 0.0
19/01:30pm 34.5 29.7 11.6 25 13.8 ENE 28 39 15 21 1010.4 1007.2 0.0
19/01:00pm 33.9 29.3 12.3 27 13.1 NE 28 39 15 21 1011.0 1007.8 0.0
19/12:38pm 33.5 28.7 13.0 29 12.6 NE 30 48 16 26 1011.7 1008.5 0.0
19/12:30pm 33.0 28.3 13.1 30 12.2 ENE 30 41 16 22 1011.8 1008.6 0.0
19/12:00pm 32.0 26.9 13.2 31 11.5 ENE 32 41 17 22 1012.3 1009.1 0.0
19/11:30am 31.2 25.9 13.0 33 11.1 NE 33 52 18 28 1012.6 1009.4 0.0
19/11:28am 31.1 25.7 12.9 32 11.0 NE 33 52 18 28 1012.7 1009.5 0.0
19/11:00am 30.5 24.1 13.3 35 10.5 ENE 39 50 21 27 1012.8 1009.6 0.0
19/10:35am 30.2 25.2 13.9 37 10.0 ENE 33 52 18 28 1013.1 1009.9 0.0
19/10:30am 29.9 24.9 14.0 37 9.8 E 33 48 18 26 1013.1 1009.9 0.0
19/10:00am 29.0 23.5 13.6 38 9.4 E 35 48 19 26 1013.4 1010.2 0.0
19/09:30am 27.7 22.4 14.3 43 8.2 E 35 52 19 28 1013.7 1010.6 0.0
19/09:00am 26.6 21.1 14.7 48 7.3 E 37 52 20 28 1013.6 1010.5 0.0
19/08:30am 25.9 20.9 15.0 51 6.7 E 35 50 19 27 1013.5 1010.3 0.0
19/08:00am 24.5 17.9 14.9 55 5.8 E 43 56 23 30 1013.0 1009.8 0.0
19/07:30am 23.4 18.2 15.5 61 4.8 E 37 48 20 26 1012.8 1009.6 0.0
19/07:00am 22.8 18.4 15.6 64 4.4 E 33 46 18 25 1012.6 1009.4 0.0
19/06:30am 22.1 17.2 15.2 65 4.2 E 35 52 19 28 1012.2 1009.0 0.0
19/06:00am 23.0 17.5 14.6 59 5.1 ESE 37 57 20 31 1011.8 1008.6 0.0
19/05:43am 23.1 17.9 14.4 58 5.2 E 35 54 19 29 1011.7 1008.5 0.0
19/05:30am 23.1 17.1 14.4 58 5.2 E 39 50 21 27 1011.7 1008.5 0.0
19/05:00am 23.3 18.1 14.6 58 5.3 ESE 35 52 19 28 1011.2 1008.0 0.0
19/04:34am 23.7 18.8 14.4 56 5.6 ESE 33 52 18 28 1011.0 1007.8 0.0
19/04:30am 23.6 18.3 14.3 56 5.6 ESE 35 48 19 26 1011.1 1007.9 0.0
19/04:28am 23.7 18.1 14.4 56 5.6 ESE 37 56 20 30 1011.1 1007.9 0.0
19/04:00am 23.3 18.1 14.6 58 5.3 ESE 35 48 19 26 1010.6 1007.4 0.0
19/03:30am 23.5 18.8 14.2 56 5.6 ESE 32 46 17 25 1010.8 1007.6 0.0
19/03:01am 23.5 18.2 14.2 56 5.6 ESE 35 54 19 29 1010.7 1007.5 0.0
19/03:00am 23.5 18.6 14.2 56 5.6 ESE 33 48 18 26 1010.8 1007.6 0.0
19/02:30am 23.7 18.9 14.1 55 5.8 ESE 32 44 17 24 1010.9 1007.7 0.0
19/02:00am 23.7 18.4 14.1 55 5.8 E 35 50 19 27 1011.0 1007.8 0.0
19/01:30am 24.0 18.9 13.8 53 6.1 E 33 46 18 25 1011.2 1008.0 0.0
19/01:00am 24.3 19.7 13.5 51 6.4 E 30 44 16 24 1011.7 1008.5 0.0
19/12:30am 24.6 19.6 13.5 50 6.6 E 32 44 17 24 1012.1 1008.9 0.0
19/12:00am 25.0 20.0 13.5 48 6.9 E 32 50 17 27 1012.2 1009.0 0.0
 
Date/Time
CST
Temp
°C
App
Temp
°C
Dew
Point
°C
Rel
Hum
%
Delta-T
°C
Wind Press
QNH
hPa
Press
MSL
hPa
Rain since
9am
mm
Dir  Spd
km/h
Gust
km/h
Spd
kts
Gust
kts
18/11:36pm 25.3 19.8 13.5 48 7.1 E 35 54 19 29 1012.1 1008.9 0.0
18/11:30pm 25.4 18.8 13.6 48 7.1 E 41 54 22 29 1012.1 1008.9 0.0
18/11:05pm 25.5 18.9 13.7 48 7.1 E 41 59 22 32 1012.3 1009.1 0.0
18/11:00pm 25.5 18.5 13.7 48 7.1 E 43 59 23 32 1012.2 1009.0 0.0
18/10:30pm 25.6 20.2 13.8 48 7.1 ESE 35 56 19 30 1012.0 1008.8 0.0
18/10:01pm 25.7 18.6 13.5 46 7.3 ESE 43 61 23 33 1011.2 1008.0 0.0
18/10:00pm 25.7 18.4 13.5 46 7.3 ESE 44 61 24 33 1011.2 1008.0 0.0
18/09:55pm 25.8 18.7 13.3 46 7.5 ESE 43 61 23 33 1011.1 1007.9 0.0
18/09:30pm 26.5 19.3 13.6 45 7.8 ESE 44 61 24 33 1010.9 1007.7 0.0
18/09:00pm 26.8 19.7 13.5 44 8.0 ESE 43 61 23 33 1010.6 1007.4 0.0
18/08:37pm 27.4 20.8 13.7 43 8.3 ESE 41 63 22 34 1010.3 1007.1 0.0
18/08:30pm 27.5 20.7 14.2 44 8.1 SE 43 56 23 30 1010.2 1007.0 0.0
18/08:13pm 28.2 21.7 14.1 42 8.6 ESE 41 59 22 32 1009.7 1006.5 0.0
18/08:00pm 28.6 22.5 14.1 41 8.9 ESE 39 56 21 30 1008.8 1005.6 0.0
18/07:43pm 30.9 26.8 11.3 30 11.6 E 24 48 13 26 1008.5 1005.3 0.0
18/07:30pm 33.5 29.1 8.9 22 14.2 ENE 22 28 12 15 1008.0 1004.8 0.0
18/07:00pm 33.9 29.9 9.2 22 14.3 ENE 20 28 11 15 1007.7 1004.5 0.0
18/06:30pm 35.3 29.8 7.4 18 15.9 NNE 26 32 14 17 1007.6 1004.3 0.0
18/06:00pm 35.8 30.5 8.6 19 15.8 N 26 35 14 19 1007.3 1004.0 0.0
18/05:30pm 36.3 30.2 8.2 18 16.2 ENE 30 41 16 22 1007.2 1003.9 0.0
18/05:00pm 37.6 32.1 7.5 16 17.3 NNW 26 35 14 19 1006.9 1003.7 0.0
18/04:30pm 36.6 29.0 5.8 15 17.2 NW 35 48 19 26 1006.8 1003.6 0.0
18/04:15pm 36.6 30.3 7.6 17 16.6 NW 30 48 16 26 1006.8 1003.6 0.0
18/04:00pm 38.1 33.4 6.0 14 18.1 N 20 32 11 17 1006.8 1003.6 0.0
18/03:30pm 38.6 32.8 6.3 14 18.3 N 26 35 14 19 1007.1 1003.8 0.0
18/03:00pm 37.8 32.3 5.7 14 18.0 N 24 35 13 19 1007.6 1004.3 0.0
18/02:30pm 38.3 32.3 7.1 15 17.9 NNE 28 57 15 31 1008.2 1005.0 0.0
18/02:06pm 38.7 33.0 8.4 16 17.7 N 28 46 15 25 1008.5 1005.3 0.0
18/02:00pm 38.1 31.8 8.8 17 17.2 N 32 46 17 25 1008.7 1005.5 0.0
18/01:50pm 38.4 32.9 9.0 17 17.3 NNE 28 48 15 26 1008.8 1005.6 0.0
18/01:30pm 38.4 32.5 9.0 17 17.3 N 30 43 16 23 1009.2 1006.0 0.0
18/01:24pm 38.5 33.2 10.0 18 17.0 N 28 46 15 25 1009.2 1006.0 0.0
18/01:00pm 37.6 31.7 9.2 18 16.7 N 30 44 16 24 1009.7 1006.5 0.0
18/12:30pm 36.9 30.5 9.5 19 16.2 N 33 48 18 26 1010.3 1007.1 0.0
18/12:00pm 36.8 30.8 10.2 20 15.9 N 32 46 17 25 1010.6 1007.4 0.0
18/11:30am 36.7 30.7 10.1 20 15.8 N 32 46 17 25 1011.0 1007.8 0.0
18/11:02am 35.2 28.9 9.6 21 15.0 NNE 33 52 18 28 1011.5 1008.3 0.0
18/11:00am 35.2 28.5 9.6 21 15.0 NNE 35 52 19 28 1011.5 1008.3 0.0
18/10:30am 34.8 28.4 10.6 23 14.4 NNE 35 46 19 25 1012.2 1009.0 0.0
18/10:00am 33.7 27.2 10.3 24 13.8 NE 35 43 19 23 1012.3 1009.1 0.0
18/09:30am 32.8 26.4 10.8 26 13.0 NNE 35 44 19 24 1012.4 1009.2 0.0
18/09:00am 31.9 25.8 10.6 27 12.5 NE 33 43 18 23 1012.4 1009.2 0.0
18/08:30am 30.3 25.0 11.3 31 11.2 ENE 30 41 16 22 1012.5 1009.3 0.0
18/08:00am 29.6 24.8 11.6 33 10.6 ENE 28 35 15 19 1012.3 1009.1 0.0
18/07:30am 28.1 23.2 11.2 35 9.9 ENE 28 33 15 18 1012.0 1008.8 0.0
18/07:00am 27.1 23.8 11.6 38 9.1 ENE 20 28 11 15 1011.4 1008.2 0.0
18/06:30am 26.3 22.5 11.2 38 8.7 ENE 22 30 12 16 1011.1 1007.9 0.0
18/06:00am 26.5 22.9 10.6 37 9.1 ENE 20 26 11 14 1010.7 1007.5 0.0
18/05:30am 27.1 22.7 10.3 35 9.6 ENE 24 32 13 17 1010.6 1007.4 0.0
18/05:00am 27.3 23.6 9.6 33 10.0 E 19 26 10 14 1010.5 1007.3 0.0
18/04:30am 27.6 24.3 9.4 32 10.3 E 17 22 9 12 1010.3 1007.1 0.0
18/04:00am 28.0 25.0 9.3 31 10.6 ENE 15 19 8 10 1010.1 1006.9 0.0
18/03:30am 28.6 25.5 8.8 29 11.1 ENE 15 20 8 11 1009.9 1006.7 0.0
18/03:00am 29.2 25.7 8.8 28 11.5 ENE 17 22 9 12 1009.6 1006.3 0.0
18/02:30am 29.7 26.1 8.2 26 12.0 E 17 22 9 12 1009.7 1006.5 0.0
18/02:00am 30.7 26.2 8.4 25 12.6 E 22 28 12 15 1009.7 1006.5 0.0
18/01:30am 30.7 25.6 7.8 24 12.8 E 24 33 13 18 1009.7 1006.5 0.0
18/01:00am 31.3 27.0 7.1 22 13.4 E 19 24 10 13 1009.9 1006.7 0.0
18/12:30am 32.2 28.1 6.4 20 14.2 E 17 26 9 14 1009.8 1006.6 0.0
18/12:00am 32.2 27.8 4.9 18 14.7 ESE 17 20 9 11 1009.5 1006.2 0.0
 
Date/Time
CST
Temp
°C
App
Temp
°C
Dew
Point
°C
Rel
Hum
%
Delta-T
°C
Wind Press
QNH
hPa
Press
MSL
hPa
Rain since
9am
mm
Dir  Spd
km/h
Gust
km/h
Spd
kts
Gust
kts
17/11:30pm 33.0 27.3 4.7 17 15.2 NE 24 32 13 17 1008.6 1005.4 0.0
17/11:00pm 31.9 27.8 4.6 18 14.6 NE 15 19 8 10 1008.6 1005.4 0.0
17/10:30pm 32.0 28.2 3.9 17 14.9 ENE 13 17 7 9 1008.5 1005.3 0.0
17/10:00pm 33.0 28.6 2.9 15 15.7 NE 15 19 8 10 1008.6 1005.4 0.0
17/09:30pm 33.6 29.3 3.4 15 16.0 ENE 15 19 8 10 1008.4 1005.2 0.0
17/09:00pm 33.6 29.7 1.4 13 16.5 ENE 11 19 6 10 1008.3 1005.1 0.0
17/08:30pm 33.9 30.5 -0.7 11 17.2 N 7 9 4 5 1008.0 1004.8 0.0
17/08:00pm 34.7 30.6 -0.1 11 17.5 NNW 11 15 6 8 1007.7 1004.5 0.0
17/07:30pm 35.7 31.2 -0.6 10 18.2 NNW 13 15 7 8 1007.3 1004.0 0.0
17/07:00pm 36.8 32.7 -2.8 8 19.3 NNW 9 11 5 6 1006.9 1003.7 0.0
17/06:30pm 38.4 33.7 -1.6 8 20.1 WNW 13 17 7 9 1006.6 1003.4 0.0
17/06:00pm 38.8 34.2 -1.3 8 20.3 W 13 20 7 11 1006.3 1003.1 0.0
17/05:30pm 39.2 34.6 -1.1 8 20.5 WNW 13 20 7 11 1006.2 1003.0 0.0
17/05:00pm 38.9 33.5 -1.3 8 20.3 NNW 17 24 9 13 1006.3 1003.1 0.0
17/04:30pm 38.7 33.5 0.2 9 20.0 NW 17 22 9 12 1006.3 1003.1 0.0
17/04:00pm 38.6 33.2 -1.5 8 20.2 NNW 17 26 9 14 1006.3 1003.1 0.0
17/03:30pm 38.6 33.6 -1.5 8 20.2 NW 15 24 8 13 1006.6 1003.4 0.0
17/03:00pm 39.2 34.1 0.6 9 20.2 NW 17 32 9 17 1006.8 1003.6 0.0
17/02:30pm 39.0 32.9 0.4 9 20.1 NW 22 32 12 17 1007.3 1004.0 0.0
17/02:00pm 39.3 33.6 0.6 9 20.2 N 20 39 11 21 1007.6 1004.3 0.0
17/01:30pm 39.3 34.2 0.6 9 20.2 NNW 17 33 9 18 1007.9 1004.7 0.0
17/01:00pm 39.2 33.3 2.0 10 19.8 NW 22 33 12 18 1008.4 1005.2 0.0
17/12:30pm 39.4 33.0 0.7 9 20.3 N 24 33 13 18 1008.7 1005.5 0.0
17/12:00pm 38.5 31.8 1.5 10 19.5 NNW 26 39 14 21 1009.1 1005.9 0.0
17/11:30am 37.7 31.3 3.4 12 18.5 NNW 26 39 14 21 1009.5 1006.2 0.0
17/11:00am 36.8 31.1 6.9 16 16.9 NNW 26 35 14 19 1009.8 1006.6 0.0
17/10:30am 35.3 30.7 8.2 19 15.6 NNW 22 35 12 19 1010.0 1006.8 0.0

Other formats

Comma delimited format used in spreadsheet applications
http://www.bom.gov.au/fwo/IDD60801/IDD60801.94321.axf

JavaScript Object Notation format (JSON) in row-major order
http://www.bom.gov.au/fwo/IDD60801/IDD60801.94321.json

Data quality

Most of these data are generated automatically and are frequently updated. Quality checks on data are not normally performed. It is possible for incorrect values to appear. Refer to information at About Latest Weather Observations and please check the disclaimer before using these data.